Centerville, MA (02632)

9:09 AM EDT on August 27, 2016 (GMT -0400)
KMACENTE2 | | Change Station

Elev 80 ft 41.68 °N, 70.37 °W | Updated 13 seconds ago

Clear
Clear
74.5 °F
Feels Like 77 °F
N
3.0
Wind Variable Wind from ENE
Gusts 7.0 mph

Today
High -- | Low -- °F
--% Chance of Precip.
Yesterday
High -- | Low -- °F
Precip. -- in
Pressure 30.15 in
Visibility 10.0 miles
Clouds Clear
Heat Index 77 °F
Dew Point 44 °F
Humidity 33%
Rainfall 0.00 in
Snow Depth Not available.
6:02 AM 7:21 PM
Waning Crescent, 24% visible
METAR KHYA 271256Z 02008KT 10SM CLR 24/17 A3014 RMK AO2 SLP208 T02440172
Pressure 30.15 in
Visibility 10.0 miles
Clouds Clear
Heat Index 77 °F
Dew Point 44 °F
Humidity 33%
Rainfall 0.00 in
Snow Depth Not available.
6:02 AM 7:21 PM
Waning Crescent, 24% visible
METAR KHYA 271256Z 02008KT 10SM CLR 24/17 A3014 RMK AO2 SLP208 T02440172

10-Day Weather Forecast

Almanac

Astronomy

Aug. 27, 2016 Rise Set
Actual Time
Civil Twilight
Nautical Twilight
Astronomical Twilight
Moon
Length of Visible Light
Length of Day
Tomorrow will be .
, % of the Moon is Illuminated

Today's Extremes

State Highs State Lows

Community

WunderPhotos

Upload Photos

1,935,328 photos uploaded!

WunderBlog® & News

Nearby

Air Quality

  Air Quality AQ Index Pollutant
Not available.

Snow Depth

Station Depth Elevation

Earthquake Activity

City Distance Mag. Time & Date
Minimum magnitude displayed is 2.5.

Coastal Water Temperatures

Place Temperature

Stations

Nearby Weather Stations

Station Location Temp. Windchill Dew Point Humidity Wind Precip. Elev Updated Type
                   

Watches & Warnings

There are currently no watches in effect.